Vance Air Force Base
KEND : now visible

Aeroporto :











RITROVATECI SU...

 
LOGIN :

Iscrizione | Disclaimer

   EN    FR    IT 

 









Sommario :    VFR   VFR Marginale   IFR   IFR Intensivo   IFR Molto Intensivo
Visibilità : 
Base nubi : 
>= 8 km
>= 3000ft
5 / 8 km
1000 / 3000 ft
1500m / 5 km
500 / 1000 ft
800 / 1500m
200 / 500 ft
< 800m
< 200 ft
Simboli :   Temporali  Nebbia  Neve Forte  Precipitazioni Forti  Vento > 20 kt







- Altitudine del aeroporto : 1307 ft


KEND - Vance Air Force Base

ULTIMO METAR :
  • 160521Z AUTO 20021G29KT 10SM -RA VCTS FEW028 SCT044 BKN095 21/21 A2983 RMK AO2 DZE02RAB02 TSE0458TSB06E21 PRESRR SLP090 $

METARs OBSOLETI :
  • 160506Z AUTO 20037G41KT 10SM -TSRA FEW027 BKN095 24/24 A2978 RMK AO2 DZE02RAB02 TSE0458TSB06 SLP072 $
  • 160501Z AUTO 14018G31KT 10SM -DZ VCTS BKN090 25/25 A2979 RMK AO2 WSHFT 0459 TSE0458 PRESRR SLP075 $
  • 160443Z AUTO 07009KT 10SM -TSRA FEW045 OVC090 25/25 A2976 RMK AO2 DZB10E11RAB11 TSB01E27TSB43 PRESFR SLP064 $
  • 160427Z AUTO 09011KT 9SM -RA VCTS FEW060 FEW075 BKN090 OVC120 26/26 A2979 RMK AO2 DZB10E11RAB11 TSB01E27 SLP075 $
  • 160401Z AUTO 08010KT 10SM TS BKN095 BKN120 26/26 A2979 RMK AO2 TSB01 PRESRR SLP075 $
  • 160256Z AUTO 11006KT 10SM FEW046 BKN130 OVC150 27/27 A2978 RMK AO2 LTG DSNT SW-N SLP071 T02680268 53012 $

Previsioni scadute.
FIR KZKC / America del Nord



MetMap, La meteo Aeronautica in un colpo d'occhio ! - Copyright ORBIFLY Dicembre 2007 - Disclaimer

ORBIFLY MET'MAP TEAM :

Programmazione e sviluppo : Alexandra Zaïnal
Concezione e sviluppo : Baudouin d'Aumeries
Co-Programmazione e sviluppo : Marc-Olivier Méhu
Supporto tecnico e logistico : Manuel Goepfert
Aiuto per la traduzione : Arnaldo La Scala

Contatto : metmap@orbifly.com




FONTI E CREDITI :

   NOAA       Earth
Advisory